sensor_id;sensor_type;location;lat;lon;timestamp;P1;durP1;ratioP1;P2;durP2;ratioP2
59474;SDS011;45288;51.136;16.928;2023-04-24T00:00:17;803.13;;;744.40;;
59474;SDS011;45288;51.136;16.928;2023-04-24T00:02:43;955.60;;;888.50;;
59474;SDS011;45288;51.136;16.928;2023-04-24T00:05:12;948.85;;;882.00;;
59474;SDS011;45288;51.136;16.928;2023-04-24T00:07:39;1048.35;;;976.63;;
59474;SDS011;45288;51.136;16.928;2023-04-24T00:10:06;922.75;;;857.63;;
59474;SDS011;45288;51.136;16.928;2023-04-24T00:12:32;989.63;;;920.70;;
59474;SDS011;45288;51.136;16.928;2023-04-24T00:14:57;1130.00;;;999.90;;
59474;SDS011;45288;51.136;16.928;2023-04-24T00:17:23;1128.93;;;999.90;;
59474;SDS011;45288;51.136;16.928;2023-04-24T00:19:48;1121.53;;;999.90;;
59474;SDS011;45288;51.136;16.928;2023-04-24T00:22:17;1108.15;;;999.90;;
59474;SDS011;45288;51.136;16.928;2023-04-24T00:24:43;1121.63;;;999.90;;
59474;SDS011;45288;51.136;16.928;2023-04-24T00:27:08;1112.30;;;999.90;;
59474;SDS011;45288;51.136;16.928;2023-04-24T00:29:34;1124.32;;;999.90;;
59474;SDS011;45288;51.136;16.928;2023-04-24T00:32:00;1125.47;;;999.90;;
59474;SDS011;45288;51.136;16.928;2023-04-24T00:34:25;1131.72;;;999.90;;
59474;SDS011;45288;51.136;16.928;2023-04-24T00:36:51;1095.93;;;999.90;;
59474;SDS011;45288;51.136;16.928;2023-04-24T00:39:18;1051.77;;;979.40;;
59474;SDS011;45288;51.136;16.928;2023-04-24T00:41:43;1110.37;;;999.90;;
59474;SDS011;45288;51.136;16.928;2023-04-24T00:44:10;1007.03;;;937.05;;
59474;SDS011;45288;51.136;16.928;2023-04-24T00:46:36;1029.75;;;958.05;;
59474;SDS011;45288;51.136;16.928;2023-04-24T00:49:02;987.03;;;917.38;;
59474;SDS011;45288;51.136;16.928;2023-04-24T00:51:28;1035.43;;;963.00;;
59474;SDS011;45288;51.136;16.928;2023-04-24T00:53:53;960.42;;;891.75;;
59474;SDS011;45288;51.136;16.928;2023-04-24T00:56:22;1117.93;;;999.90;;
59474;SDS011;45288;51.136;16.928;2023-04-24T00:58:49;1140.47;;;999.90;;
59474;SDS011;45288;51.136;16.928;2023-04-24T01:01:14;1128.78;;;999.90;;
59474;SDS011;45288;51.136;16.928;2023-04-24T01:03:41;1120.28;;;999.90;;
59474;SDS011;45288;51.136;16.928;2023-04-24T01:06:07;1097.97;;;999.90;;
59474;SDS011;45288;51.136;16.928;2023-04-24T01:08:33;1121.80;;;999.90;;
59474;SDS011;45288;51.136;16.928;2023-04-24T01:11:00;729.15;;;676.03;;
59474;SDS011;45288;51.136;16.928;2023-04-24T01:13:28;956.83;;;890.13;;
59474;SDS011;45288;51.136;16.928;2023-04-24T01:15:54;1045.82;;;973.65;;
59474;SDS011;45288;51.136;16.928;2023-04-24T01:18:20;1094.63;;;999.90;;
59474;SDS011;45288;51.136;16.928;2023-04-24T01:20:48;1053.57;;;981.35;;
59474;SDS011;45288;51.136;16.928;2023-04-24T01:23:17;1079.32;;;999.90;;
59474;SDS011;45288;51.136;16.928;2023-04-24T01:25:43;1111.57;;;999.90;;
59474;SDS011;45288;51.136;16.928;2023-04-24T01:28:09;1077.28;;;999.90;;
59474;SDS011;45288;51.136;16.928;2023-04-24T01:30:37;1112.38;;;999.90;;
59474;SDS011;45288;51.136;16.928;2023-04-24T01:33:03;1115.53;;;999.90;;
59474;SDS011;45288;51.136;16.928;2023-04-24T01:35:29;1129.30;;;999.90;;
59474;SDS011;45288;51.136;16.928;2023-04-24T01:37:55;1116.03;;;999.90;;
59474;SDS011;45288;51.136;16.928;2023-04-24T01:40:20;1133.57;;;999.90;;
59474;SDS011;45288;51.136;16.928;2023-04-24T01:42:46;1130.75;;;999.90;;
59474;SDS011;45288;51.136;16.928;2023-04-24T01:45:12;1128.25;;;999.90;;
59474;SDS011;45288;51.136;16.928;2023-04-24T01:47:39;1133.47;;;999.90;;
59474;SDS011;45288;51.136;16.928;2023-04-24T01:50:05;1116.40;;;999.90;;
59474;SDS011;45288;51.136;16.928;2023-04-24T01:52:31;1105.43;;;999.90;;
59474;SDS011;45288;51.136;16.928;2023-04-24T01:55:01;1129.18;;;999.90;;
59474;SDS011;45288;51.136;16.928;2023-04-24T01:57:28;1122.05;;;999.90;;
59474;SDS011;45288;51.136;16.928;2023-04-24T01:59:55;1118.45;;;999.90;;
59474;SDS011;45288;51.136;16.928;2023-04-24T02:02:21;1131.73;;;999.90;;
59474;SDS011;45288;51.136;16.928;2023-04-24T02:04:49;1128.13;;;999.90;;
59474;SDS011;45288;51.136;16.928;2023-04-24T02:07:15;1107.97;;;999.90;;
59474;SDS011;45288;51.136;16.928;2023-04-24T02:09:41;1125.80;;;999.90;;
59474;SDS011;45288;51.136;16.928;2023-04-24T02:12:07;1112.93;;;999.90;;
59474;SDS011;45288;51.136;16.928;2023-04-24T02:14:32;1122.30;;;999.90;;
59474;SDS011;45288;51.136;16.928;2023-04-24T02:16:58;1111.63;;;999.90;;
59474;SDS011;45288;51.136;16.928;2023-04-24T02:19:24;849.90;;;790.28;;
59474;SDS011;45288;51.136;16.928;2023-04-24T02:21:50;462.67;;;428.87;;
59474;SDS011;45288;51.136;16.928;2023-04-24T02:24:15;553.33;;;513.22;;
59474;SDS011;45288;51.136;16.928;2023-04-24T02:26:41;593.50;;;550.42;;
59474;SDS011;45288;51.136;16.928;2023-04-24T02:29:07;617.23;;;572.37;;
59474;SDS011;45288;51.136;16.928;2023-04-24T02:31:33;579.67;;;537.30;;
59474;SDS011;45288;51.136;16.928;2023-04-24T02:33:59;639.50;;;592.80;;
59474;SDS011;45288;51.136;16.928;2023-04-24T02:36:24;606.93;;;562.50;;
59474;SDS011;45288;51.136;16.928;2023-04-24T02:38:50;710.58;;;658.45;;
59474;SDS011;45288;51.136;16.928;2023-04-24T02:41:16;659.10;;;610.83;;
59474;SDS011;45288;51.136;16.928;2023-04-24T02:43:42;680.03;;;629.38;;
59474;SDS011;45288;51.136;16.928;2023-04-24T02:46:07;683.30;;;633.37;;
59474;SDS011;45288;51.136;16.928;2023-04-24T02:48:33;795.97;;;738.30;;
59474;SDS011;45288;51.136;16.928;2023-04-24T02:50:59;896.55;;;833.45;;
59474;SDS011;45288;51.136;16.928;2023-04-24T02:53:25;1037.73;;;966.90;;
59474;SDS011;45288;51.136;16.928;2023-04-24T02:55:51;999.38;;;930.33;;
59474;SDS011;45288;51.136;16.928;2023-04-24T02:58:16;952.95;;;887.17;;
59474;SDS011;45288;51.136;16.928;2023-04-24T03:00:42;948.15;;;881.70;;
59474;SDS011;45288;51.136;16.928;2023-04-24T03:03:08;858.30;;;797.67;;
59474;SDS011;45288;51.136;16.928;2023-04-24T03:05:34;886.15;;;823.88;;
59474;SDS011;45288;51.136;16.928;2023-04-24T03:08:00;799.42;;;740.90;;
59474;SDS011;45288;51.136;16.928;2023-04-24T03:10:26;824.43;;;765.30;;
59474;SDS011;45288;51.136;16.928;2023-04-24T03:12:51;804.35;;;745.83;;
59474;SDS011;45288;51.136;16.928;2023-04-24T03:15:17;789.63;;;732.03;;
59474;SDS011;45288;51.136;16.928;2023-04-24T03:17:43;813.03;;;753.78;;
59474;SDS011;45288;51.136;16.928;2023-04-24T03:20:09;850.88;;;790.25;;
59474;SDS011;45288;51.136;16.928;2023-04-24T03:22:35;797.70;;;739.17;;
59474;SDS011;45288;51.136;16.928;2023-04-24T03:25:05;837.00;;;777.28;;
59474;SDS011;45288;51.136;16.928;2023-04-24T03:27:30;838.05;;;777.67;;
59474;SDS011;45288;51.136;16.928;2023-04-24T03:30:00;834.42;;;774.22;;
59474;SDS011;45288;51.136;16.928;2023-04-24T03:32:37;808.42;;;749.88;;
59474;SDS011;45288;51.136;16.928;2023-04-24T03:35:06;883.03;;;821.55;;
59474;SDS011;45288;51.136;16.928;2023-04-24T03:37:33;874.42;;;812.88;;
59474;SDS011;45288;51.136;16.928;2023-04-24T03:40:16;875.25;;;814.08;;
59474;SDS011;45288;51.136;16.928;2023-04-24T03:42:42;877.67;;;815.90;;
59474;SDS011;45288;51.136;16.928;2023-04-24T03:45:08;830.45;;;771.10;;
59474;SDS011;45288;51.136;16.928;2023-04-24T03:47:36;898.33;;;835.05;;
59474;SDS011;45288;51.136;16.928;2023-04-24T03:50:04;857.30;;;796.47;;
59474;SDS011;45288;51.136;16.928;2023-04-24T03:52:31;818.13;;;759.50;;
59474;SDS011;45288;51.136;16.928;2023-04-24T03:54:57;921.35;;;857.25;;
59474;SDS011;45288;51.136;16.928;2023-04-24T03:57:24;947.17;;;882.00;;
59474;SDS011;45288;51.136;16.928;2023-04-24T04:00:07;903.25;;;839.95;;
59474;SDS011;45288;51.136;16.928;2023-04-24T04:02:40;976.03;;;909.13;;
59474;SDS011;45288;51.136;16.928;2023-04-24T04:05:07;933.22;;;868.80;;
59474;SDS011;45288;51.136;16.928;2023-04-24T04:07:33;997.95;;;929.38;;
59474;SDS011;45288;51.136;16.928;2023-04-24T04:09:59;945.28;;;880.08;;
59474;SDS011;45288;51.136;16.928;2023-04-24T04:12:24;988.63;;;921.23;;
59474;SDS011;45288;51.136;16.928;2023-04-24T04:14:50;895.33;;;831.95;;
59474;SDS011;45288;51.136;16.928;2023-04-24T04:17:16;887.80;;;824.73;;
59474;SDS011;45288;51.136;16.928;2023-04-24T04:19:41;933.70;;;868.03;;
59474;SDS011;45288;51.136;16.928;2023-04-24T04:22:07;936.20;;;870.97;;
59474;SDS011;45288;51.136;16.928;2023-04-24T04:24:45;847.90;;;786.92;;
59474;SDS011;45288;51.136;16.928;2023-04-24T04:27:12;917.10;;;852.28;;
59474;SDS011;45288;51.136;16.928;2023-04-24T04:29:54;886.50;;;823.60;;
59474;SDS011;45288;51.136;16.928;2023-04-24T04:32:22;903.57;;;840.07;;
59474;SDS011;45288;51.136;16.928;2023-04-24T04:34:48;1022.55;;;952.38;;
59474;SDS011;45288;51.136;16.928;2023-04-24T04:37:15;1008.25;;;939.47;;
59474;SDS011;45288;51.136;16.928;2023-04-24T04:39:50;953.13;;;885.92;;
59474;SDS011;45288;51.136;16.928;2023-04-24T04:42:19;1067.68;;;994.67;;
59474;SDS011;45288;51.136;16.928;2023-04-24T04:44:45;1070.53;;;996.85;;
59474;SDS011;45288;51.136;16.928;2023-04-24T04:47:28;1007.55;;;937.83;;
59474;SDS011;45288;51.136;16.928;2023-04-24T04:49:58;967.80;;;900.17;;
59474;SDS011;45288;51.136;16.928;2023-04-24T04:52:26;925.92;;;860.20;;
59474;SDS011;45288;51.136;16.928;2023-04-24T04:55:00;883.28;;;819.85;;
59474;SDS011;45288;51.136;16.928;2023-04-24T04:57:40;762.53;;;706.45;;
59474;SDS011;45288;51.136;16.928;2023-04-24T05:00:06;981.80;;;913.10;;
59474;SDS011;45288;51.136;16.928;2023-04-24T05:02:42;889.40;;;825.85;;
59474;SDS011;45288;51.136;16.928;2023-04-24T05:05:08;913.08;;;848.88;;
59474;SDS011;45288;51.136;16.928;2023-04-24T05:07:34;746.88;;;691.65;;
59474;SDS011;45288;51.136;16.928;2023-04-24T05:10:00;748.20;;;692.97;;
59474;SDS011;45288;51.136;16.928;2023-04-24T05:12:26;751.17;;;695.87;;
59474;SDS011;45288;51.136;16.928;2023-04-24T05:14:53;809.50;;;750.70;;
59474;SDS011;45288;51.136;16.928;2023-04-24T05:17:18;807.95;;;748.67;;
59474;SDS011;45288;51.136;16.928;2023-04-24T05:19:44;745.10;;;689.17;;
59474;SDS011;45288;51.136;16.928;2023-04-24T05:22:10;839.73;;;778.70;;
59474;SDS011;45288;51.136;16.928;2023-04-24T05:24:46;788.67;;;730.67;;
59474;SDS011;45288;51.136;16.928;2023-04-24T05:27:32;893.65;;;830.40;;
59474;SDS011;45288;51.136;16.928;2023-04-24T05:29:58;859.88;;;798.50;;
59474;SDS011;45288;51.136;16.928;2023-04-24T05:32:24;821.40;;;761.83;;
59474;SDS011;45288;51.136;16.928;2023-04-24T05:34:50;844.45;;;783.50;;
59474;SDS011;45288;51.136;16.928;2023-04-24T05:37:15;837.00;;;776.37;;
59474;SDS011;45288;51.136;16.928;2023-04-24T05:39:41;820.85;;;761.25;;
59474;SDS011;45288;51.136;16.928;2023-04-24T05:42:07;768.47;;;712.60;;
59474;SDS011;45288;51.136;16.928;2023-04-24T05:44:33;768.37;;;710.83;;
59474;SDS011;45288;51.136;16.928;2023-04-24T05:46:59;744.38;;;689.10;;
59474;SDS011;45288;51.136;16.928;2023-04-24T05:49:25;700.83;;;648.75;;
59474;SDS011;45288;51.136;16.928;2023-04-24T05:51:50;766.67;;;709.67;;
59474;SDS011;45288;51.136;16.928;2023-04-24T05:54:17;745.25;;;690.17;;
59474;SDS011;45288;51.136;16.928;2023-04-24T05:56:42;818.63;;;758.90;;
59474;SDS011;45288;51.136;16.928;2023-04-24T05:59:11;655.72;;;607.05;;
59474;SDS011;45288;51.136;16.928;2023-04-24T06:01:37;626.83;;;579.85;;
59474;SDS011;45288;51.136;16.928;2023-04-24T06:04:09;609.88;;;564.28;;
59474;SDS011;45288;51.136;16.928;2023-04-24T06:06:35;599.40;;;553.60;;
59474;SDS011;45288;51.136;16.928;2023-04-24T06:09:00;667.13;;;617.47;;
59474;SDS011;45288;51.136;16.928;2023-04-24T06:11:27;592.60;;;546.10;;
59474;SDS011;45288;51.136;16.928;2023-04-24T06:13:53;581.35;;;537.63;;
59474;SDS011;45288;51.136;16.928;2023-04-24T06:16:42;573.53;;;530.60;;
59474;SDS011;45288;51.136;16.928;2023-04-24T06:19:21;541.08;;;500.98;;
59474;SDS011;45288;51.136;16.928;2023-04-24T06:21:47;607.53;;;562.25;;
59474;SDS011;45288;51.136;16.928;2023-04-24T06:24:13;640.70;;;592.73;;
59474;SDS011;45288;51.136;16.928;2023-04-24T06:26:39;658.00;;;606.25;;
59474;SDS011;45288;51.136;16.928;2023-04-24T06:29:06;614.13;;;568.13;;
59474;SDS011;45288;51.136;16.928;2023-04-24T06:31:32;642.80;;;593.77;;
59474;SDS011;45288;51.136;16.928;2023-04-24T06:34:02;577.25;;;533.55;;
59474;SDS011;45288;51.136;16.928;2023-04-24T06:36:28;599.67;;;554.40;;
59474;SDS011;45288;51.136;16.928;2023-04-24T06:38:54;558.43;;;516.87;;
59474;SDS011;45288;51.136;16.928;2023-04-24T06:41:19;518.47;;;479.98;;
59474;SDS011;45288;51.136;16.928;2023-04-24T06:43:45;488.87;;;451.70;;
59474;SDS011;45288;51.136;16.928;2023-04-24T06:46:11;420.45;;;389.48;;
59474;SDS011;45288;51.136;16.928;2023-04-24T06:48:37;381.17;;;353.20;;
59474;SDS011;45288;51.136;16.928;2023-04-24T06:51:03;404.50;;;374.77;;
59474;SDS011;45288;51.136;16.928;2023-04-24T06:53:28;368.13;;;341.33;;
59474;SDS011;45288;51.136;16.928;2023-04-24T06:55:54;393.57;;;364.50;;
59474;SDS011;45288;51.136;16.928;2023-04-24T06:58:20;395.42;;;366.67;;
59474;SDS011;45288;51.136;16.928;2023-04-24T07:00:46;402.73;;;372.97;;
59474;SDS011;45288;51.136;16.928;2023-04-24T07:03:11;370.08;;;343.30;;
59474;SDS011;45288;51.136;16.928;2023-04-24T07:05:37;339.37;;;314.93;;
59474;SDS011;45288;51.136;16.928;2023-04-24T07:08:03;322.38;;;299.33;;
59474;SDS011;45288;51.136;16.928;2023-04-24T07:10:29;323.77;;;300.48;;
59474;SDS011;45288;51.136;16.928;2023-04-24T07:12:55;328.90;;;305.23;;
59474;SDS011;45288;51.136;16.928;2023-04-24T07:15:24;327.23;;;303.45;;
59474;SDS011;45288;51.136;16.928;2023-04-24T07:17:49;308.77;;;286.43;;
59474;SDS011;45288;51.136;16.928;2023-04-24T07:20:15;312.30;;;290.17;;
59474;SDS011;45288;51.136;16.928;2023-04-24T07:22:41;327.40;;;303.70;;
59474;SDS011;45288;51.136;16.928;2023-04-24T07:25:07;376.80;;;348.88;;
59474;SDS011;45288;51.136;16.928;2023-04-24T07:27:33;388.37;;;358.87;;
59474;SDS011;45288;51.136;16.928;2023-04-24T07:29:59;398.55;;;368.83;;
59474;SDS011;45288;51.136;16.928;2023-04-24T07:32:24;405.43;;;376.03;;
59474;SDS011;45288;51.136;16.928;2023-04-24T07:34:50;392.60;;;363.50;;
59474;SDS011;45288;51.136;16.928;2023-04-24T07:37:16;366.93;;;340.23;;
59474;SDS011;45288;51.136;16.928;2023-04-24T07:39:41;355.77;;;330.00;;
59474;SDS011;45288;51.136;16.928;2023-04-24T07:42:07;368.17;;;341.60;;
59474;SDS011;45288;51.136;16.928;2023-04-24T07:44:33;360.55;;;334.35;;
59474;SDS011;45288;51.136;16.928;2023-04-24T07:46:59;370.47;;;343.93;;
59474;SDS011;45288;51.136;16.928;2023-04-24T07:49:25;367.60;;;341.42;;
59474;SDS011;45288;51.136;16.928;2023-04-24T07:51:50;351.30;;;325.30;;
59474;SDS011;45288;51.136;16.928;2023-04-24T07:54:16;372.13;;;345.23;;
59474;SDS011;45288;51.136;16.928;2023-04-24T07:56:43;366.77;;;339.77;;
59474;SDS011;45288;51.136;16.928;2023-04-24T07:59:08;378.90;;;350.80;;
59474;SDS011;45288;51.136;16.928;2023-04-24T08:01:35;374.58;;;346.88;;
59474;SDS011;45288;51.136;16.928;2023-04-24T08:04:01;387.95;;;359.67;;
59474;SDS011;45288;51.136;16.928;2023-04-24T08:06:27;375.38;;;347.77;;
59474;SDS011;45288;51.136;16.928;2023-04-24T08:08:57;364.98;;;338.23;;
59474;SDS011;45288;51.136;16.928;2023-04-24T08:11:23;397.50;;;368.55;;
59474;SDS011;45288;51.136;16.928;2023-04-24T08:13:49;380.02;;;351.80;;
59474;SDS011;45288;51.136;16.928;2023-04-24T08:16:15;379.77;;;351.95;;
59474;SDS011;45288;51.136;16.928;2023-04-24T08:18:40;382.27;;;354.07;;
59474;SDS011;45288;51.136;16.928;2023-04-24T08:21:06;358.20;;;332.30;;
59474;SDS011;45288;51.136;16.928;2023-04-24T08:23:32;363.90;;;337.00;;
59474;SDS011;45288;51.136;16.928;2023-04-24T08:25:57;361.73;;;335.33;;
59474;SDS011;45288;51.136;16.928;2023-04-24T08:28:23;373.27;;;345.50;;
59474;SDS011;45288;51.136;16.928;2023-04-24T08:30:49;377.43;;;350.20;;
59474;SDS011;45288;51.136;16.928;2023-04-24T08:33:20;374.02;;;346.63;;
59474;SDS011;45288;51.136;16.928;2023-04-24T08:35:45;366.25;;;339.40;;
59474;SDS011;45288;51.136;16.928;2023-04-24T08:38:11;361.23;;;335.47;;
59474;SDS011;45288;51.136;16.928;2023-04-24T08:40:37;367.65;;;340.65;;
59474;SDS011;45288;51.136;16.928;2023-04-24T08:43:03;352.83;;;327.45;;
59474;SDS011;45288;51.136;16.928;2023-04-24T08:45:29;390.17;;;361.47;;
59474;SDS011;45288;51.136;16.928;2023-04-24T08:47:55;513.60;;;474.08;;
59474;SDS011;45288;51.136;16.928;2023-04-24T08:50:21;475.97;;;439.77;;
59474;SDS011;45288;51.136;16.928;2023-04-24T08:52:48;449.13;;;414.67;;
59474;SDS011;45288;51.136;16.928;2023-04-24T08:55:14;413.60;;;382.83;;
59474;SDS011;45288;51.136;16.928;2023-04-24T08:57:42;414.55;;;383.15;;
59474;SDS011;45288;51.136;16.928;2023-04-24T09:00:10;385.88;;;357.30;;
59474;SDS011;45288;51.136;16.928;2023-04-24T09:02:36;396.60;;;366.77;;
59474;SDS011;45288;51.136;16.928;2023-04-24T09:05:02;435.47;;;402.77;;
59474;SDS011;45288;51.136;16.928;2023-04-24T09:07:29;468.63;;;432.00;;
59474;SDS011;45288;51.136;16.928;2023-04-24T09:09:55;496.35;;;458.55;;
59474;SDS011;45288;51.136;16.928;2023-04-24T09:12:21;491.73;;;454.10;;
59474;SDS011;45288;51.136;16.928;2023-04-24T09:14:47;506.13;;;466.90;;
59474;SDS011;45288;51.136;16.928;2023-04-24T09:17:13;531.25;;;490.02;;
59474;SDS011;45288;51.136;16.928;2023-04-24T09:19:39;555.55;;;512.55;;
59474;SDS011;45288;51.136;16.928;2023-04-24T09:22:06;561.15;;;517.70;;
59474;SDS011;45288;51.136;16.928;2023-04-24T09:24:34;555.03;;;512.33;;
59474;SDS011;45288;51.136;16.928;2023-04-24T09:27:00;559.47;;;516.85;;
59474;SDS011;45288;51.136;16.928;2023-04-24T09:29:29;529.53;;;489.13;;
59474;SDS011;45288;51.136;16.928;2023-04-24T09:31:55;519.50;;;479.60;;
59474;SDS011;45288;51.136;16.928;2023-04-24T09:34:21;510.23;;;471.33;;
59474;SDS011;45288;51.136;16.928;2023-04-24T09:36:48;526.38;;;486.63;;
59474;SDS011;45288;51.136;16.928;2023-04-24T09:39:14;516.47;;;476.95;;
59474;SDS011;45288;51.136;16.928;2023-04-24T09:41:56;495.38;;;457.38;;
59474;SDS011;45288;51.136;16.928;2023-04-24T09:44:27;543.30;;;501.48;;
59474;SDS011;45288;51.136;16.928;2023-04-24T09:46:54;578.38;;;534.10;;
59474;SDS011;45288;51.136;16.928;2023-04-24T09:49:21;685.30;;;632.17;;
59474;SDS011;45288;51.136;16.928;2023-04-24T09:51:47;726.30;;;670.30;;
59474;SDS011;45288;51.136;16.928;2023-04-24T09:54:16;793.95;;;734.10;;
59474;SDS011;45288;51.136;16.928;2023-04-24T09:56:43;918.95;;;850.08;;
59474;SDS011;45288;51.136;16.928;2023-04-24T09:59:10;815.55;;;753.67;;
59474;SDS011;45288;51.136;16.928;2023-04-24T10:01:35;1026.07;;;950.13;;
59474;SDS011;45288;51.136;16.928;2023-04-24T10:04:03;934.42;;;864.05;;
59474;SDS011;45288;51.136;16.928;2023-04-24T10:06:31;1019.97;;;944.15;;
59474;SDS011;45288;51.136;16.928;2023-04-24T10:08:56;900.08;;;831.50;;
59474;SDS011;45288;51.136;16.928;2023-04-24T10:11:25;947.35;;;876.10;;
59474;SDS011;45288;51.136;16.928;2023-04-24T10:13:51;1041.90;;;965.40;;
59474;SDS011;45288;51.136;16.928;2023-04-24T10:16:17;1062.50;;;984.97;;
59474;SDS011;45288;51.136;16.928;2023-04-24T10:18:43;1006.07;;;931.50;;
59474;SDS011;45288;51.136;16.928;2023-04-24T10:21:09;1028.55;;;953.17;;
59474;SDS011;45288;51.136;16.928;2023-04-24T10:23:35;1127.10;;;999.90;;
59474;SDS011;45288;51.136;16.928;2023-04-24T10:26:01;1064.18;;;986.60;;
59474;SDS011;45288;51.136;16.928;2023-04-24T10:28:26;1058.10;;;980.77;;
59474;SDS011;45288;51.136;16.928;2023-04-24T10:30:54;1079.25;;;999.28;;
59474;SDS011;45288;51.136;16.928;2023-04-24T10:33:20;1077.10;;;998.10;;
59474;SDS011;45288;51.136;16.928;2023-04-24T10:35:46;1050.37;;;974.60;;
59474;SDS011;45288;51.136;16.928;2023-04-24T10:38:15;1030.25;;;955.95;;
59474;SDS011;45288;51.136;16.928;2023-04-24T10:40:42;1011.83;;;937.22;;
59474;SDS011;45288;51.136;16.928;2023-04-24T10:43:08;958.08;;;886.72;;
59474;SDS011;45288;51.136;16.928;2023-04-24T10:45:36;971.13;;;898.87;;
59474;SDS011;45288;51.136;16.928;2023-04-24T10:48:03;946.08;;;874.92;;
59474;SDS011;45288;51.136;16.928;2023-04-24T10:50:30;951.83;;;881.47;;
59474;SDS011;45288;51.136;16.928;2023-04-24T10:53:07;942.70;;;872.97;;
59474;SDS011;45288;51.136;16.928;2023-04-24T10:55:39;985.13;;;912.72;;
59474;SDS011;45288;51.136;16.928;2023-04-24T10:58:05;905.95;;;837.53;;
59474;SDS011;45288;51.136;16.928;2023-04-24T11:00:30;876.50;;;809.90;;
59474;SDS011;45288;51.136;16.928;2023-04-24T11:02:56;860.10;;;794.80;;
59474;SDS011;45288;51.136;16.928;2023-04-24T11:05:22;861.78;;;796.80;;
59474;SDS011;45288;51.136;16.928;2023-04-24T11:08:10;915.35;;;846.67;;
59474;SDS011;45288;51.136;16.928;2023-04-24T11:10:39;860.03;;;794.40;;
59474;SDS011;45288;51.136;16.928;2023-04-24T11:13:05;849.85;;;785.05;;
59474;SDS011;45288;51.136;16.928;2023-04-24T11:15:30;937.63;;;867.77;;
59474;SDS011;45288;51.136;16.928;2023-04-24T11:17:56;962.58;;;890.85;;
59474;SDS011;45288;51.136;16.928;2023-04-24T11:20:22;940.03;;;869.78;;
59474;SDS011;45288;51.136;16.928;2023-04-24T11:22:48;887.53;;;820.20;;
59474;SDS011;45288;51.136;16.928;2023-04-24T11:25:17;898.25;;;830.85;;
59474;SDS011;45288;51.136;16.928;2023-04-24T11:27:43;927.05;;;857.03;;
59474;SDS011;45288;51.136;16.928;2023-04-24T11:30:09;818.88;;;756.88;;
59474;SDS011;45288;51.136;16.928;2023-04-24T11:32:37;801.22;;;739.50;;
59474;SDS011;45288;51.136;16.928;2023-04-24T11:35:04;863.28;;;797.83;;
59474;SDS011;45288;51.136;16.928;2023-04-24T11:37:34;733.92;;;677.33;;
59474;SDS011;45288;51.136;16.928;2023-04-24T11:40:01;761.07;;;702.60;;
59474;SDS011;45288;51.136;16.928;2023-04-24T11:42:27;766.90;;;708.50;;
59474;SDS011;45288;51.136;16.928;2023-04-24T11:44:53;804.53;;;743.40;;
59474;SDS011;45288;51.136;16.928;2023-04-24T11:47:30;673.97;;;621.92;;
59474;SDS011;45288;51.136;16.928;2023-04-24T11:49:57;670.08;;;617.83;;
59474;SDS011;45288;51.136;16.928;2023-04-24T11:52:23;660.45;;;609.58;;
59474;SDS011;45288;51.136;16.928;2023-04-24T11:54:49;704.23;;;649.17;;
59474;SDS011;45288;51.136;16.928;2023-04-24T11:57:15;673.55;;;621.70;;
59474;SDS011;45288;51.136;16.928;2023-04-24T11:59:41;701.47;;;647.13;;
59474;SDS011;45288;51.136;16.928;2023-04-24T12:02:06;722.00;;;666.78;;
59474;SDS011;45288;51.136;16.928;2023-04-24T12:04:39;714.73;;;659.13;;
59474;SDS011;45288;51.136;16.928;2023-04-24T12:07:05;678.22;;;625.65;;
59474;SDS011;45288;51.136;16.928;2023-04-24T12:12:08;691.53;;;638.33;;
59474;SDS011;45288;51.136;16.928;2023-04-24T12:14:49;700.65;;;646.60;;
59474;SDS011;45288;51.136;16.928;2023-04-24T12:17:16;736.70;;;680.10;;
59474;SDS011;45288;51.136;16.928;2023-04-24T12:19:45;711.90;;;656.88;;
59474;SDS011;45288;51.136;16.928;2023-04-24T12:22:11;719.50;;;664.23;;
59474;SDS011;45288;51.136;16.928;2023-04-24T12:27:22;719.22;;;664.25;;
59474;SDS011;45288;51.136;16.928;2023-04-24T12:29:57;698.50;;;644.63;;
59474;SDS011;45288;51.136;16.928;2023-04-24T12:32:23;700.95;;;646.85;;
59474;SDS011;45288;51.136;16.928;2023-04-24T12:34:50;709.17;;;655.07;;
59474;SDS011;45288;51.136;16.928;2023-04-24T12:37:17;1184.20;;;999.90;;
59474;SDS011;45288;51.136;16.928;2023-04-24T12:40:01;981.53;;;909.95;;
59474;SDS011;45288;51.136;16.928;2023-04-24T12:42:28;914.63;;;847.78;;
59474;SDS011;45288;51.136;16.928;2023-04-24T12:44:57;805.73;;;746.00;;
59474;SDS011;45288;51.136;16.928;2023-04-24T12:47:24;743.92;;;688.53;;
59474;SDS011;45288;51.136;16.928;2023-04-24T12:49:50;737.63;;;682.33;;
59474;SDS011;45288;51.136;16.928;2023-04-24T12:52:18;710.92;;;657.65;;
59474;SDS011;45288;51.136;16.928;2023-04-24T12:54:45;1019.53;;;948.30;;
59474;SDS011;45288;51.136;16.928;2023-04-24T12:57:11;1055.38;;;982.25;;
59474;SDS011;45288;51.136;16.928;2023-04-24T12:59:36;1018.00;;;946.57;;
59474;SDS011;45288;51.136;16.928;2023-04-24T13:02:02;1022.50;;;950.30;;
59474;SDS011;45288;51.136;16.928;2023-04-24T13:04:28;978.17;;;909.08;;
59474;SDS011;45288;51.136;16.928;2023-04-24T13:06:53;1099.57;;;999.90;;
59474;SDS011;45288;51.136;16.928;2023-04-24T13:09:19;1098.90;;;999.90;;
59474;SDS011;45288;51.136;16.928;2023-04-24T13:11:45;1156.93;;;999.90;;
59474;SDS011;45288;51.136;16.928;2023-04-24T13:14:10;1139.47;;;999.90;;
59474;SDS011;45288;51.136;16.928;2023-04-24T13:16:36;1144.20;;;999.90;;
59474;SDS011;45288;51.136;16.928;2023-04-24T13:19:02;1131.25;;;999.90;;
59474;SDS011;45288;51.136;16.928;2023-04-24T13:21:27;1054.20;;;982.43;;
59474;SDS011;45288;51.136;16.928;2023-04-24T13:23:53;467.35;;;433.50;;
59474;SDS011;45288;51.136;16.928;2023-04-24T13:26:19;500.50;;;464.60;;
59474;SDS011;45288;51.136;16.928;2023-04-24T13:28:45;574.92;;;533.17;;
59474;SDS011;45288;51.136;16.928;2023-04-24T13:31:10;593.55;;;550.20;;
59474;SDS011;45288;51.136;16.928;2023-04-24T13:33:36;589.43;;;546.70;;
59474;SDS011;45288;51.136;16.928;2023-04-24T13:36:02;571.47;;;529.87;;
59474;SDS011;45288;51.136;16.928;2023-04-24T13:38:27;623.97;;;578.17;;
59474;SDS011;45288;51.136;16.928;2023-04-24T13:40:53;642.30;;;595.23;;
59474;SDS011;45288;51.136;16.928;2023-04-24T13:43:18;632.90;;;586.60;;
59474;SDS011;45288;51.136;16.928;2023-04-24T13:45:44;607.50;;;563.50;;